createdAt,value
2022-11-24T00:01:53.146Z,4.02
2022-11-24T00:04:22.645Z,3.92
2022-11-24T00:06:53.427Z,4.18
2022-11-24T00:09:25.585Z,4.51
2022-11-24T00:11:55.031Z,4.30
2022-11-24T00:14:25.007Z,4.13
2022-11-24T00:16:54.524Z,4.10
2022-11-24T00:19:24.169Z,3.94
2022-11-24T00:21:53.673Z,3.96
2022-11-24T00:24:25.802Z,3.80
2022-11-24T00:26:55.222Z,3.80
2022-11-24T00:29:24.649Z,3.73
2022-11-24T00:31:54.135Z,3.87
2022-11-24T00:34:23.557Z,3.86
2022-11-24T00:36:53.065Z,3.78
2022-11-24T00:39:26.239Z,3.89
2022-11-24T00:41:55.662Z,4.14
2022-11-24T00:44:25.236Z,4.00
2022-11-24T00:46:54.747Z,4.01
2022-11-24T00:49:24.272Z,3.75
2022-11-24T00:51:53.832Z,3.88
2022-11-24T00:54:26.301Z,4.37
2022-11-24T00:56:55.739Z,4.26
2022-11-24T00:59:25.182Z,4.40
2022-11-24T01:01:55.003Z,4.38
2022-11-24T01:04:24.684Z,4.29
2022-11-24T01:06:54.063Z,4.18
2022-11-24T01:09:26.943Z,4.22
2022-11-24T01:12:05.153Z,4.08
2022-11-24T01:14:35.718Z,4.25
2022-11-24T01:17:05.596Z,4.16
2022-11-24T01:19:35.189Z,3.91
2022-11-24T01:22:04.940Z,4.11
2022-11-24T01:24:36.934Z,4.07
2022-11-24T01:27:06.440Z,4.21
2022-11-24T01:29:36.205Z,4.26
2022-11-24T01:32:05.647Z,4.25
2022-11-24T01:34:35.360Z,4.21
2022-11-24T01:37:05.131Z,4.10
2022-11-24T01:39:37.151Z,4.37
2022-11-24T01:42:06.688Z,4.22
2022-11-24T01:44:36.642Z,3.87
2022-11-24T01:47:08.987Z,4.02
2022-11-24T01:49:42.031Z,4.07
2022-11-24T01:52:15.385Z,3.96
2022-11-24T01:54:51.484Z,4.02
2022-11-24T01:57:24.141Z,3.96
2022-11-24T01:59:55.681Z,3.90
2022-11-24T02:02:25.293Z,4.21
2022-11-24T02:04:55.015Z,4.03
2022-11-24T02:07:24.617Z,4.07
2022-11-24T02:09:58.841Z,4.03
2022-11-24T02:12:29.605Z,4.30
2022-11-24T02:14:59.101Z,4.30
2022-11-24T02:17:28.502Z,4.03
2022-11-24T02:19:59.717Z,3.95
2022-11-24T02:22:35.985Z,3.82
2022-11-24T02:25:12.943Z,3.98
2022-11-24T02:27:50.687Z,4.01
2022-11-24T02:30:23.478Z,4.42
2022-11-24T02:32:52.995Z,4.26
2022-11-24T02:35:23.031Z,4.13
2022-11-24T02:37:52.426Z,4.15
2022-11-24T02:40:25.514Z,4.16
2022-11-24T02:42:59.497Z,4.15
2022-11-24T02:45:29.463Z,4.15
2022-11-24T02:47:58.845Z,4.01
2022-11-24T02:50:28.645Z,4.23
2022-11-24T02:52:58.032Z,4.12
2022-11-24T02:55:27.516Z,4.01
2022-11-24T02:57:59.469Z,4.05
2022-11-24T03:00:28.874Z,3.87
2022-11-24T03:02:58.287Z,3.82
2022-11-24T03:05:27.693Z,3.87
2022-11-24T03:07:57.142Z,4.08
2022-11-24T03:10:28.491Z,4.23
2022-11-24T03:13:00.828Z,4.18
2022-11-24T03:15:30.307Z,4.13
2022-11-24T03:17:59.834Z,4.21
2022-11-24T03:20:29.372Z,4.39
2022-11-24T03:22:59.740Z,4.17
2022-11-24T03:25:29.174Z,4.25
2022-11-24T03:28:01.312Z,4.21
2022-11-24T03:30:30.780Z,3.93
2022-11-24T03:33:00.228Z,3.82
2022-11-24T03:35:29.671Z,3.76
2022-11-24T03:37:59.059Z,3.95
2022-11-24T03:40:28.486Z,3.79
2022-11-24T03:42:57.896Z,3.80
2022-11-24T03:45:46.503Z,3.73
2022-11-24T03:48:16.188Z,3.86
2022-11-24T03:50:45.763Z,3.80
2022-11-24T03:53:15.283Z,3.71
2022-11-24T03:55:46.005Z,3.80
2022-11-24T03:58:15.396Z,4.06
2022-11-24T04:00:48.451Z,4.10
2022-11-24T04:03:17.897Z,4.20
2022-11-24T04:05:47.422Z,4.14
2022-11-24T04:08:17.620Z,3.99
2022-11-24T04:10:47.140Z,4.12
2022-11-24T04:13:15.943Z,4.04
2022-11-24T04:15:48.063Z,3.99
2022-11-24T04:18:17.511Z,3.90
2022-11-24T04:20:47.225Z,3.89
2022-11-24T04:23:16.887Z,3.81
2022-11-24T04:25:46.363Z,3.82
2022-11-24T04:28:16.022Z,3.93
2022-11-24T04:30:48.351Z,3.89
2022-11-24T04:33:17.725Z,3.99
2022-11-24T04:35:47.106Z,3.94
2022-11-24T04:39:24.333Z,4.13
2022-11-24T04:41:06.335Z,4.43
2022-11-24T04:43:40.395Z,4.61
2022-11-24T04:46:14.314Z,4.76
2022-11-24T04:48:44.633Z,4.87
2022-11-24T04:51:16.101Z,4.91
2022-11-24T04:53:45.706Z,4.89
2022-11-24T04:56:15.122Z,5.05
2022-11-24T04:58:44.542Z,4.97
2022-11-24T05:01:16.545Z,5.04
2022-11-24T05:03:46.152Z,5.16
2022-11-24T05:06:15.607Z,5.15
2022-11-24T05:08:44.968Z,4.99
2022-11-24T05:11:14.394Z,4.78
2022-11-24T05:13:43.884Z,4.54
2022-11-24T05:16:15.941Z,4.48
2022-11-24T05:18:45.460Z,4.49
2022-11-24T05:21:14.852Z,4.43
2022-11-24T05:23:44.751Z,4.31
2022-11-24T05:26:17.046Z,4.39
2022-11-24T05:28:46.798Z,4.58
2022-11-24T05:31:19.048Z,4.78
2022-11-24T05:33:48.566Z,4.79
2022-11-24T05:36:30.243Z,4.95
2022-11-24T05:38:59.841Z,4.93
2022-11-24T05:41:29.568Z,5.06
2022-11-24T05:44:00.100Z,4.71
2022-11-24T05:46:32.092Z,4.78
2022-11-24T05:49:01.533Z,4.42
2022-11-24T05:51:31.354Z,4.29
2022-11-24T05:54:00.801Z,4.28
2022-11-24T05:56:30.210Z,4.62
2022-11-24T05:58:59.649Z,4.77
2022-11-24T06:01:29.138Z,4.73
2022-11-24T06:04:01.191Z,5.14
2022-11-24T06:06:30.675Z,5.22
2022-11-24T06:09:00.164Z,5.25
2022-11-24T06:11:29.606Z,5.35
2022-11-24T06:13:59.328Z,5.50
2022-11-24T06:16:28.965Z,5.37
2022-11-24T06:19:00.954Z,5.40
2022-11-24T06:21:30.789Z,5.32
2022-11-24T06:24:00.234Z,4.86
2022-11-24T06:26:29.689Z,4.63
2022-11-24T06:28:59.153Z,4.46
2022-11-24T06:31:28.723Z,4.54
2022-11-24T06:34:01.402Z,4.75
2022-11-24T06:36:30.927Z,5.13
2022-11-24T06:39:00.436Z,5.09
2022-11-24T06:41:30.182Z,5.16
2022-11-24T06:43:59.702Z,5.24
2022-11-24T06:46:29.285Z,5.33
2022-11-24T06:49:02.485Z,5.09
2022-11-24T06:51:32.004Z,5.23
2022-11-24T06:54:01.734Z,5.30
2022-11-24T06:56:31.213Z,5.15
2022-11-24T06:59:00.694Z,5.47
2022-11-24T07:01:32.316Z,5.19
2022-11-24T07:04:04.520Z,5.31
2022-11-24T07:06:34.171Z,5.20
2022-11-24T07:09:03.567Z,5.18
2022-11-24T07:11:32.978Z,4.91
2022-11-24T07:14:02.419Z,4.80
2022-11-24T07:16:32.172Z,4.75
2022-11-24T07:19:04.263Z,4.88
2022-11-24T07:21:33.704Z,4.78
2022-11-24T07:24:03.109Z,5.06
2022-11-24T07:26:37.136Z,4.76
2022-11-24T07:29:07.620Z,4.64
2022-11-24T07:31:37.206Z,4.48
2022-11-24T07:34:09.213Z,4.54
2022-11-24T07:36:38.613Z,4.49
2022-11-24T07:39:09.031Z,4.38
2022-11-24T07:41:38.521Z,4.37
2022-11-24T07:44:08.620Z,4.34
2022-11-24T07:46:38.006Z,4.33
2022-11-24T07:49:10.022Z,4.41
2022-11-24T07:51:39.609Z,4.40
2022-11-24T07:54:09.185Z,4.41
2022-11-24T07:56:38.619Z,4.44
2022-11-24T07:59:08.372Z,4.43
2022-11-24T08:01:38.061Z,4.37
2022-11-24T08:04:10.437Z,4.36
2022-11-24T08:06:44.672Z,4.35
2022-11-24T08:09:16.691Z,4.36
2022-11-24T08:11:46.094Z,4.40
2022-11-24T08:14:15.524Z,4.37
2022-11-24T08:16:47.903Z,4.45
2022-11-24T08:19:20.118Z,4.52
2022-11-24T08:21:49.617Z,4.55
2022-11-24T08:24:19.140Z,4.59
2022-11-24T08:26:48.548Z,4.64
2022-11-24T08:29:18.008Z,4.69
2022-11-24T08:31:47.543Z,4.69
2022-11-24T08:34:17.070Z,4.66
2022-11-24T08:36:49.078Z,4.71
2022-11-24T08:39:19.036Z,4.77
2022-11-24T08:41:48.478Z,4.79
2022-11-24T08:44:18.324Z,4.80
2022-11-24T08:46:48.028Z,4.82
2022-11-24T08:49:18.844Z,4.83
2022-11-24T08:51:51.354Z,4.85
2022-11-24T08:54:21.694Z,4.84
2022-11-24T08:56:52.119Z,5.33
2022-11-24T08:59:21.616Z,5.29
2022-11-24T09:01:51.223Z,5.48
2022-11-24T09:04:20.753Z,5.62
2022-11-24T09:06:52.746Z,5.75
2022-11-24T09:09:22.482Z,5.81
2022-11-24T09:11:51.875Z,5.62
2022-11-24T09:14:24.419Z,5.67
2022-11-24T09:16:53.978Z,5.67
2022-11-24T09:19:23.409Z,5.60
2022-11-24T09:21:55.425Z,6.01
2022-11-24T09:24:24.971Z,6.02
2022-11-24T09:26:57.047Z,6.07
2022-11-24T09:29:26.651Z,6.08
2022-11-24T09:31:56.042Z,6.03
2022-11-24T09:34:25.455Z,6.15
2022-11-24T09:36:58.743Z,6.34
2022-11-24T09:39:28.169Z,6.32
2022-11-24T09:42:06.503Z,6.35
2022-11-24T09:44:48.565Z,6.33
2022-11-24T09:47:23.635Z,6.35
2022-11-24T09:49:58.374Z,6.31
2022-11-24T09:52:41.100Z,6.16
2022-11-24T09:55:22.974Z,6.06
2022-11-24T09:57:57.584Z,6.43
2022-11-24T10:00:26.988Z,6.59
2022-11-24T10:02:56.424Z,6.54
2022-11-24T10:05:28.617Z,6.79
2022-11-24T10:08:09.239Z,6.95
2022-11-24T10:10:45.676Z,6.97
2022-11-24T10:13:28.061Z,6.73
2022-11-24T10:16:02.278Z,6.57
2022-11-24T10:18:41.049Z,6.46
2022-11-24T10:21:25.694Z,6.43
2022-11-24T10:24:09.990Z,6.47
2022-11-24T10:26:41.414Z,6.48
2022-11-24T10:29:19.964Z,6.53
2022-11-24T10:31:50.590Z,6.57
2022-11-24T10:34:21.420Z,6.56
2022-11-24T10:36:57.081Z,6.56
2022-11-24T10:39:33.245Z,6.68
2022-11-24T10:42:07.283Z,6.74
2022-11-24T10:44:36.733Z,6.77
2022-11-24T10:47:06.246Z,6.76
2022-11-24T10:49:35.992Z,6.87
2022-11-24T10:52:09.644Z,6.86
2022-11-24T10:54:57.004Z,6.86
2022-11-24T10:57:34.933Z,6.90
2022-11-24T11:00:06.743Z,6.87
2022-11-24T11:02:39.449Z,6.94
2022-11-24T11:05:35.223Z,6.97
2022-11-24T11:08:19.921Z,6.95
2022-11-24T11:10:53.428Z,6.95
2022-11-24T11:13:28.460Z,7.01
2022-11-24T11:15:58.825Z,7.16
2022-11-24T11:18:34.157Z,7.16
2022-11-24T11:21:04.832Z,7.29
2022-11-24T11:23:36.603Z,7.48
2022-11-24T11:26:37.466Z,7.43
2022-11-24T11:35:14.795Z,7.62
2022-11-24T11:37:44.465Z,7.62
2022-11-24T11:40:19.379Z,7.68
2022-11-24T11:43:02.504Z,7.61
2022-11-24T11:45:37.810Z,7.48
2022-11-24T11:48:22.991Z,7.52
2022-11-24T11:53:47.248Z,7.50
2022-11-24T11:56:25.229Z,7.53
2022-11-24T11:59:10.048Z,7.51
2022-11-24T12:02:01.916Z,7.58
2022-11-24T12:04:44.949Z,7.59
2022-11-24T12:07:28.625Z,7.65
2022-11-24T12:10:03.554Z,7.62
2022-11-24T12:13:03.911Z,7.72
2022-11-24T12:15:41.162Z,7.70
2022-11-24T12:18:56.022Z,7.69
2022-11-24T12:21:25.985Z,7.66
2022-11-24T12:24:03.267Z,7.70
2022-11-24T12:26:38.867Z,7.66
2022-11-24T12:29:29.614Z,7.74
2022-11-24T12:32:08.600Z,7.74
2022-11-24T12:34:48.347Z,7.77
2022-11-24T12:37:33.190Z,7.76
2022-11-24T12:40:07.224Z,7.77
2022-11-24T12:42:43.723Z,7.78
2022-11-24T12:45:18.308Z,7.79
2022-11-24T12:48:11.140Z,7.82
2022-11-24T12:50:42.582Z,7.82
2022-11-24T12:53:16.521Z,7.86
2022-11-24T12:55:46.605Z,7.89
2022-11-24T12:58:22.513Z,7.96
2022-11-24T13:01:01.295Z,8.00
2022-11-24T13:03:41.562Z,8.00
2022-11-24T13:06:16.122Z,8.15
2022-11-24T13:08:45.838Z,8.07
2022-11-24T13:11:40.561Z,8.01
2022-11-24T13:14:15.295Z,8.03
2022-11-24T13:19:48.981Z,8.02
2022-11-24T13:22:20.878Z,8.01
2022-11-24T13:25:07.341Z,8.06
2022-11-24T13:27:45.566Z,8.02
2022-11-24T13:30:56.828Z,8.00
2022-11-24T13:33:44.412Z,7.93
2022-11-24T13:36:35.366Z,7.96
2022-11-24T13:39:07.556Z,7.99
2022-11-24T13:42:42.492Z,8.02
2022-11-24T13:45:03.128Z,7.97
2022-11-24T13:47:50.296Z,7.97
2022-11-24T13:51:01.602Z,7.99
2022-11-24T13:53:36.160Z,7.96
2022-11-24T13:56:10.066Z,7.91
2022-11-24T13:58:40.319Z,7.97
2022-11-24T14:01:19.033Z,7.92
2022-11-24T14:04:28.061Z,7.90
2022-11-24T14:06:45.410Z,7.90
2022-11-24T14:09:36.912Z,7.94
2022-11-24T14:12:10.677Z,8.09
2022-11-24T14:14:40.446Z,8.08
2022-11-24T14:17:16.884Z,8.00
2022-11-24T14:19:47.596Z,8.00
2022-11-24T14:22:21.621Z,8.01
2022-11-24T14:25:01.190Z,8.05
2022-11-24T14:27:32.960Z,8.10
2022-11-24T14:30:03.672Z,7.99
2022-11-24T14:32:33.170Z,7.99
2022-11-24T14:35:02.710Z,7.93
2022-11-24T14:37:32.495Z,7.94
2022-11-24T14:40:04.535Z,7.93
2022-11-24T14:42:34.194Z,7.92
2022-11-24T14:45:04.434Z,7.88
2022-11-24T14:47:36.214Z,7.92
2022-11-24T14:50:14.695Z,7.89
2022-11-24T14:52:49.166Z,7.86
2022-11-24T14:55:32.240Z,7.83
2022-11-24T14:58:02.274Z,7.84
2022-11-24T15:00:33.719Z,7.81
2022-11-24T15:03:18.719Z,7.79
2022-11-24T15:05:56.322Z,7.76
2022-11-24T15:08:27.207Z,7.79
2022-11-24T15:11:04.058Z,7.81
2022-11-24T15:13:37.177Z,7.77
2022-11-24T15:16:09.472Z,7.77
2022-11-24T15:18:43.641Z,7.74
2022-11-24T15:21:18.812Z,7.70
2022-11-24T15:24:07.424Z,7.64
2022-11-24T15:26:42.176Z,7.62
2022-11-24T15:29:12.435Z,7.65
2022-11-24T15:31:46.309Z,7.77
2022-11-24T15:34:18.785Z,7.77
2022-11-24T15:36:48.224Z,7.77
2022-11-24T15:39:18.881Z,7.75
2022-11-24T15:41:51.319Z,7.73
2022-11-24T15:44:20.851Z,7.68
2022-11-24T15:46:51.650Z,7.64
2022-11-24T15:49:21.194Z,7.65
2022-11-24T15:51:51.007Z,7.72
2022-11-24T15:54:20.979Z,7.75
2022-11-24T15:56:53.010Z,7.70
2022-11-24T15:59:22.474Z,7.56
2022-11-24T16:01:52.570Z,7.54
2022-11-24T16:04:22.014Z,7.51
2022-11-24T16:06:51.417Z,7.53
2022-11-24T16:09:20.977Z,7.50
2022-11-24T16:11:52.971Z,7.43
2022-11-24T16:14:22.473Z,7.42
2022-11-24T16:16:52.101Z,7.46
2022-11-24T16:19:21.631Z,7.45
2022-11-24T16:21:51.051Z,7.48
2022-11-24T16:24:20.514Z,7.49
2022-11-24T16:26:49.927Z,7.54
2022-11-24T16:29:23.708Z,7.47
2022-11-24T16:31:54.416Z,7.35
2022-11-24T16:34:24.033Z,7.32
2022-11-24T16:36:53.494Z,7.27
2022-11-24T16:39:22.886Z,7.20
2022-11-24T16:41:52.239Z,7.14
2022-11-24T16:44:24.256Z,7.15
2022-11-24T16:46:53.664Z,7.07
2022-11-24T16:49:23.258Z,6.96
2022-11-24T16:51:52.633Z,6.89
2022-11-24T16:54:22.176Z,6.91
2022-11-24T16:56:51.547Z,6.81
2022-11-24T16:59:23.828Z,6.73
2022-11-24T17:01:53.342Z,6.64
2022-11-24T17:04:22.895Z,6.56
2022-11-24T17:06:52.302Z,6.50
2022-11-24T17:09:22.236Z,6.41
2022-11-24T17:11:51.608Z,6.40
2022-11-24T17:14:21.009Z,6.47
2022-11-24T17:16:53.154Z,6.48
2022-11-24T17:19:22.799Z,6.37
2022-11-24T17:21:52.363Z,6.32
2022-11-24T17:24:21.728Z,6.22
2022-11-24T17:26:52.266Z,6.15
2022-11-24T17:29:21.914Z,6.10
2022-11-24T17:31:54.178Z,6.08
2022-11-24T17:34:23.700Z,6.04
2022-11-24T17:36:53.128Z,5.99
2022-11-24T17:39:25.188Z,5.99
2022-11-24T17:41:54.642Z,5.90
2022-11-24T17:44:24.112Z,5.89
2022-11-24T17:46:56.166Z,5.87
2022-11-24T17:49:25.540Z,5.83
2022-11-24T17:51:55.093Z,5.75
2022-11-24T17:54:46.002Z,5.75
2022-11-24T17:57:13.860Z,5.75
2022-11-24T17:59:43.831Z,5.75
2022-11-24T18:02:16.147Z,5.70
2022-11-24T18:04:45.602Z,5.73
2022-11-24T18:07:15.065Z,5.71
2022-11-24T18:09:44.536Z,5.71
2022-11-24T18:12:13.983Z,5.66
2022-11-24T18:14:43.360Z,5.60
2022-11-24T18:17:15.327Z,5.58
2022-11-24T18:19:44.769Z,5.60
2022-11-24T18:22:14.229Z,5.58
2022-11-24T18:24:43.656Z,5.63
2022-11-24T18:27:13.068Z,5.61
2022-11-24T18:29:42.464Z,5.52
2022-11-24T18:32:11.973Z,5.50
2022-11-24T18:34:44.427Z,5.48
2022-11-24T18:37:16.370Z,5.50
2022-11-24T18:39:45.805Z,5.50
2022-11-24T18:42:15.296Z,5.72
2022-11-24T18:44:45.432Z,6.34
2022-11-24T18:47:17.153Z,6.00
2022-11-24T18:49:49.168Z,5.80
2022-11-24T18:52:18.536Z,6.00
2022-11-24T18:54:47.980Z,5.80
2022-11-24T18:57:17.385Z,5.52
2022-11-24T18:59:46.761Z,5.37
2022-11-24T19:02:16.188Z,5.28
2022-11-24T19:04:45.631Z,5.26
2022-11-24T19:07:17.906Z,5.17
2022-11-24T19:09:47.712Z,5.11
2022-11-24T19:12:17.145Z,5.08
2022-11-24T19:14:46.577Z,5.04
2022-11-24T19:17:15.998Z,5.01
2022-11-24T19:19:45.390Z,5.02
2022-11-24T19:22:18.191Z,5.16
2022-11-24T19:24:49.990Z,5.08
2022-11-24T19:27:21.180Z,5.18
2022-11-24T19:29:50.732Z,6.08
2022-11-24T19:32:20.147Z,5.78
2022-11-24T19:34:49.541Z,5.78
2022-11-24T19:37:22.665Z,5.37
2022-11-24T19:39:52.776Z,5.53
2022-11-24T19:42:22.185Z,5.43
2022-11-24T19:44:56.155Z,5.73
2022-11-24T19:47:26.028Z,5.51
2022-11-24T19:49:55.885Z,5.20
2022-11-24T19:52:27.936Z,5.04
2022-11-24T19:54:59.699Z,5.00
2022-11-24T19:57:29.230Z,5.01
2022-11-24T19:59:58.583Z,4.90
2022-11-24T20:02:29.449Z,4.86
2022-11-24T20:04:58.949Z,4.81
2022-11-24T20:07:30.950Z,4.80
2022-11-24T20:10:04.595Z,4.73
2022-11-24T20:12:35.649Z,4.72
2022-11-24T20:15:05.062Z,4.77
2022-11-24T20:17:34.558Z,4.69
2022-11-24T20:20:03.919Z,4.64
2022-11-24T20:22:35.927Z,4.60
2022-11-24T20:25:05.346Z,4.58
2022-11-24T20:27:35.124Z,4.61
2022-11-24T20:30:04.492Z,4.70
2022-11-24T20:32:33.914Z,4.68
2022-11-24T20:35:03.827Z,4.67
2022-11-24T20:37:35.819Z,4.64
2022-11-24T20:40:06.671Z,4.75
2022-11-24T20:42:37.423Z,4.68
2022-11-24T20:45:07.315Z,4.63
2022-11-24T20:47:36.874Z,4.53
2022-11-24T20:50:06.653Z,4.51
2022-11-24T20:52:38.645Z,4.46
2022-11-24T20:55:08.884Z,5.23
2022-11-24T20:57:38.329Z,5.30
2022-11-24T21:00:09.650Z,4.89
2022-11-24T21:02:39.196Z,4.84
2022-11-24T21:05:09.231Z,4.51
2022-11-24T21:07:41.357Z,4.34
2022-11-24T21:10:11.449Z,4.28
2022-11-24T21:12:40.858Z,4.39
2022-11-24T21:15:11.737Z,4.42
2022-11-24T21:17:41.562Z,4.29
2022-11-24T21:20:12.859Z,4.27
2022-11-24T21:22:44.843Z,4.32
2022-11-24T21:25:14.290Z,4.41
2022-11-24T21:27:43.652Z,4.22
2022-11-24T21:30:14.066Z,4.22
2022-11-24T21:32:43.423Z,4.15
2022-11-24T21:35:12.920Z,4.17
2022-11-24T21:37:44.895Z,4.04
2022-11-24T21:40:15.262Z,4.17
2022-11-24T21:42:44.682Z,4.18
2022-11-24T21:45:14.176Z,4.37
2022-11-24T21:47:46.482Z,4.35
2022-11-24T21:50:15.915Z,4.07
2022-11-24T21:52:47.914Z,4.09
2022-11-24T21:55:17.428Z,4.50
2022-11-24T21:57:46.889Z,4.30
2022-11-24T22:00:18.027Z,4.12
2022-11-24T22:02:47.459Z,4.05
2022-11-24T22:05:17.152Z,3.98
2022-11-24T22:07:50.264Z,3.77
2022-11-24T22:10:19.901Z,3.87
2022-11-24T22:12:49.348Z,3.76
2022-11-24T22:15:18.857Z,3.75
2022-11-24T22:17:48.301Z,3.76
2022-11-24T22:20:17.935Z,3.62
2022-11-24T22:22:49.942Z,3.56
2022-11-24T22:25:19.559Z,3.67
2022-11-24T22:27:49.003Z,3.64
2022-11-24T22:30:18.823Z,3.61
2022-11-24T22:32:48.203Z,3.67
2022-11-24T22:35:17.697Z,3.68
2022-11-24T22:37:49.658Z,3.53
2022-11-24T22:40:19.259Z,3.67
2022-11-24T22:42:48.696Z,3.59
2022-11-24T22:45:18.220Z,3.58
2022-11-24T22:47:47.588Z,3.57
2022-11-24T22:50:17.447Z,3.58
2022-11-24T22:52:49.341Z,3.61
2022-11-24T22:55:21.376Z,3.66
2022-11-24T22:57:53.298Z,3.58
2022-11-24T23:00:25.191Z,3.51
2022-11-24T23:02:54.722Z,3.43
2022-11-24T23:05:24.453Z,3.37
2022-11-24T23:07:54.307Z,3.33
2022-11-24T23:10:26.280Z,3.26
2022-11-24T23:12:56.654Z,3.21
2022-11-24T23:15:26.084Z,3.16
2022-11-24T23:17:55.489Z,3.14
2022-11-24T23:20:24.871Z,3.07
2022-11-24T23:22:56.942Z,3.06
2022-11-24T23:25:28.920Z,2.99
2022-11-24T23:27:58.351Z,2.84
2022-11-24T23:30:27.800Z,2.90
2022-11-24T23:32:57.451Z,2.91
2022-11-24T23:35:26.874Z,2.94
2022-11-24T23:38:11.068Z,2.89
2022-11-24T23:40:43.112Z,2.93
2022-11-24T23:43:12.789Z,2.94
2022-11-24T23:45:42.295Z,2.91
2022-11-24T23:48:11.693Z,2.98
2022-11-24T23:50:41.091Z,3.09
2022-11-24T23:53:10.505Z,3.17
2022-11-24T23:55:39.889Z,3.26
2022-11-24T23:58:11.863Z,3.08
